Blairsville, Indiana
Current Conditions -  °F | °C
As of 10:54 PM on Sunday 19 Oct 2014 (Local Time) from KEVV Reporting Station
Clear Clear  
Wind Chill:   Ceiling: Unl
Heat Index:   Visibility: 9mi
Dew Point:   Wind: 0mph
Humidity: 90%   Direction: NA
Pressure: 30.08"   Gusts: NA
Location:  38.0787°N, 87.7717°W
Report Text: KEVV 200354Z AUTO 00000KT 9SM CLR 08/07 A3008 RMK AO2 SLP185 T00830067
Loading
Personal Weather Stations






























Interactive Weather Map
Tropical Storm Tracking
New forecast layout! Learn more

10-Day Weather Forecast

Advertisements
Track Severe Weather on mobile